sensor_id;sensor_type;location;lat;lon;timestamp;P1;durP1;ratioP1;P2;durP2;ratioP2
19891;SDS011;10108;50.142;8.724;2023-04-25T00:00:19;33.92;;;27.52;;
19891;SDS011;10108;50.142;8.724;2023-04-25T00:02:46;31.00;;;27.38;;
19891;SDS011;10108;50.142;8.724;2023-04-25T00:05:12;29.65;;;26.55;;
19891;SDS011;10108;50.142;8.724;2023-04-25T00:07:40;29.65;;;26.55;;
19891;SDS011;10108;50.142;8.724;2023-04-25T00:10:08;31.00;;;27.80;;
19891;SDS011;10108;50.142;8.724;2023-04-25T00:12:36;29.77;;;26.58;;
19891;SDS011;10108;50.142;8.724;2023-04-25T00:15:03;31.08;;;27.67;;
19891;SDS011;10108;50.142;8.724;2023-04-25T00:17:29;31.77;;;28.42;;
19891;SDS011;10108;50.142;8.724;2023-04-25T00:19:56;34.60;;;28.13;;
19891;SDS011;10108;50.142;8.724;2023-04-25T00:22:23;32.58;;;27.17;;
19891;SDS011;10108;50.142;8.724;2023-04-25T00:24:49;32.35;;;27.40;;
19891;SDS011;10108;50.142;8.724;2023-04-25T00:27:16;31.83;;;27.95;;
19891;SDS011;10108;50.142;8.724;2023-04-25T00:29:42;30.17;;;27.02;;
19891;SDS011;10108;50.142;8.724;2023-04-25T00:32:08;31.02;;;27.05;;
19891;SDS011;10108;50.142;8.724;2023-04-25T00:34:35;31.05;;;27.10;;
19891;SDS011;10108;50.142;8.724;2023-04-25T00:37:01;31.73;;;26.73;;
19891;SDS011;10108;50.142;8.724;2023-04-25T00:39:27;28.73;;;25.73;;
19891;SDS011;10108;50.142;8.724;2023-04-25T00:41:54;29.90;;;25.80;;
19891;SDS011;10108;50.142;8.724;2023-04-25T00:44:20;28.45;;;25.35;;
19891;SDS011;10108;50.142;8.724;2023-04-25T00:46:47;33.95;;;25.10;;
19891;SDS011;10108;50.142;8.724;2023-04-25T00:49:16;29.27;;;25.02;;
19891;SDS011;10108;50.142;8.724;2023-04-25T00:51:43;27.08;;;23.83;;
19891;SDS011;10108;50.142;8.724;2023-04-25T00:54:10;28.80;;;23.98;;
19891;SDS011;10108;50.142;8.724;2023-04-25T00:56:37;26.90;;;23.98;;
19891;SDS011;10108;50.142;8.724;2023-04-25T00:59:04;27.65;;;23.75;;
19891;SDS011;10108;50.142;8.724;2023-04-25T01:01:30;27.58;;;24.52;;
19891;SDS011;10108;50.142;8.724;2023-04-25T01:03:58;28.15;;;24.67;;
19891;SDS011;10108;50.142;8.724;2023-04-25T01:06:24;26.23;;;23.38;;
19891;SDS011;10108;50.142;8.724;2023-04-25T01:08:51;25.98;;;23.02;;
19891;SDS011;10108;50.142;8.724;2023-04-25T01:11:17;26.65;;;23.17;;
19891;SDS011;10108;50.142;8.724;2023-04-25T01:13:43;27.52;;;23.35;;
19891;SDS011;10108;50.142;8.724;2023-04-25T01:16:09;26.30;;;22.65;;
19891;SDS011;10108;50.142;8.724;2023-04-25T01:18:36;25.88;;;22.58;;
19891;SDS011;10108;50.142;8.724;2023-04-25T01:21:09;24.02;;;21.55;;
19891;SDS011;10108;50.142;8.724;2023-04-25T01:23:37;26.67;;;22.33;;
19891;SDS011;10108;50.142;8.724;2023-04-25T01:26:04;24.27;;;21.77;;
19891;SDS011;10108;50.142;8.724;2023-04-25T01:28:35;24.70;;;22.17;;
19891;SDS011;10108;50.142;8.724;2023-04-25T01:31:03;24.80;;;21.80;;
19891;SDS011;10108;50.142;8.724;2023-04-25T01:33:29;25.75;;;22.63;;
19891;SDS011;10108;50.142;8.724;2023-04-25T01:35:55;24.13;;;21.38;;
19891;SDS011;10108;50.142;8.724;2023-04-25T01:38:22;24.00;;;21.30;;
19891;SDS011;10108;50.142;8.724;2023-04-25T01:40:48;26.58;;;21.15;;
19891;SDS011;10108;50.142;8.724;2023-04-25T01:43:18;22.55;;;20.25;;
19891;SDS011;10108;50.142;8.724;2023-04-25T01:45:44;22.77;;;20.48;;
19891;SDS011;10108;50.142;8.724;2023-04-25T01:48:12;22.23;;;19.92;;
19891;SDS011;10108;50.142;8.724;2023-04-25T01:50:40;25.00;;;21.15;;
19891;SDS011;10108;50.142;8.724;2023-04-25T01:53:06;22.15;;;19.42;;
19891;SDS011;10108;50.142;8.724;2023-04-25T01:55:36;22.00;;;19.65;;
19891;SDS011;10108;50.142;8.724;2023-04-25T01:58:06;21.52;;;19.25;;
19891;SDS011;10108;50.142;8.724;2023-04-25T02:00:53;21.88;;;19.38;;
19891;SDS011;10108;50.142;8.724;2023-04-25T02:03:19;23.65;;;20.13;;
19891;SDS011;10108;50.142;8.724;2023-04-25T02:05:46;24.33;;;19.85;;
19891;SDS011;10108;50.142;8.724;2023-04-25T02:08:12;21.45;;;19.20;;
19891;SDS011;10108;50.142;8.724;2023-04-25T02:10:39;22.42;;;19.90;;
19891;SDS011;10108;50.142;8.724;2023-04-25T02:13:13;23.38;;;19.90;;
19891;SDS011;10108;50.142;8.724;2023-04-25T02:15:57;22.38;;;20.00;;
19891;SDS011;10108;50.142;8.724;2023-04-25T02:18:23;22.50;;;20.25;;
19891;SDS011;10108;50.142;8.724;2023-04-25T02:20:49;23.65;;;21.33;;
19891;SDS011;10108;50.142;8.724;2023-04-25T02:23:15;24.17;;;21.58;;
19891;SDS011;10108;50.142;8.724;2023-04-25T02:25:41;25.38;;;21.85;;
19891;SDS011;10108;50.142;8.724;2023-04-25T02:28:07;23.48;;;21.08;;
19891;SDS011;10108;50.142;8.724;2023-04-25T02:30:35;23.52;;;21.02;;
19891;SDS011;10108;50.142;8.724;2023-04-25T02:33:04;24.10;;;21.63;;
19891;SDS011;10108;50.142;8.724;2023-04-25T02:35:30;24.38;;;20.98;;
19891;SDS011;10108;50.142;8.724;2023-04-25T02:37:56;27.95;;;20.95;;
19891;SDS011;10108;50.142;8.724;2023-04-25T02:40:22;22.95;;;20.60;;
19891;SDS011;10108;50.142;8.724;2023-04-25T02:42:48;23.58;;;20.58;;
19891;SDS011;10108;50.142;8.724;2023-04-25T02:45:14;23.45;;;21.05;;
19891;SDS011;10108;50.142;8.724;2023-04-25T02:47:41;23.17;;;20.42;;
19891;SDS011;10108;50.142;8.724;2023-04-25T02:50:07;23.60;;;20.52;;
19891;SDS011;10108;50.142;8.724;2023-04-25T02:52:33;24.98;;;20.02;;
19891;SDS011;10108;50.142;8.724;2023-04-25T02:55:09;22.45;;;20.05;;
19891;SDS011;10108;50.142;8.724;2023-04-25T02:57:37;22.80;;;20.42;;
19891;SDS011;10108;50.142;8.724;2023-04-25T03:00:04;21.70;;;19.40;;
19891;SDS011;10108;50.142;8.724;2023-04-25T03:02:31;22.67;;;19.38;;
19891;SDS011;10108;50.142;8.724;2023-04-25T03:04:57;21.40;;;19.10;;
19891;SDS011;10108;50.142;8.724;2023-04-25T03:07:23;21.95;;;19.13;;
19891;SDS011;10108;50.142;8.724;2023-04-25T03:09:50;21.63;;;19.15;;
19891;SDS011;10108;50.142;8.724;2023-04-25T03:12:16;23.15;;;19.55;;
19891;SDS011;10108;50.142;8.724;2023-04-25T03:14:42;21.98;;;19.08;;
19891;SDS011;10108;50.142;8.724;2023-04-25T03:17:08;21.70;;;18.33;;
19891;SDS011;10108;50.142;8.724;2023-04-25T03:19:35;21.75;;;18.65;;
19891;SDS011;10108;50.142;8.724;2023-04-25T03:22:01;20.90;;;18.52;;
19891;SDS011;10108;50.142;8.724;2023-04-25T03:24:28;21.13;;;18.90;;
19891;SDS011;10108;50.142;8.724;2023-04-25T03:26:54;21.88;;;18.80;;
19891;SDS011;10108;50.142;8.724;2023-04-25T03:29:20;24.17;;;18.75;;
19891;SDS011;10108;50.142;8.724;2023-04-25T03:31:50;21.45;;;19.15;;
19891;SDS011;10108;50.142;8.724;2023-04-25T03:34:16;22.45;;;19.45;;
19891;SDS011;10108;50.142;8.724;2023-04-25T03:36:42;21.85;;;18.17;;
19891;SDS011;10108;50.142;8.724;2023-04-25T03:39:09;22.92;;;19.20;;
19891;SDS011;10108;50.142;8.724;2023-04-25T03:41:36;23.60;;;19.23;;
19891;SDS011;10108;50.142;8.724;2023-04-25T03:44:08;24.33;;;18.83;;
19891;SDS011;10108;50.142;8.724;2023-04-25T03:46:34;21.75;;;19.15;;
19891;SDS011;10108;50.142;8.724;2023-04-25T03:49:00;27.70;;;19.17;;
19891;SDS011;10108;50.142;8.724;2023-04-25T03:51:39;23.30;;;19.15;;
19891;SDS011;10108;50.142;8.724;2023-04-25T03:54:06;23.48;;;19.42;;
19891;SDS011;10108;50.142;8.724;2023-04-25T03:56:33;22.73;;;18.17;;
19891;SDS011;10108;50.142;8.724;2023-04-25T03:59:06;24.48;;;19.48;;
19891;SDS011;10108;50.142;8.724;2023-04-25T04:01:32;28.42;;;19.38;;
19891;SDS011;10108;50.142;8.724;2023-04-25T04:03:58;23.83;;;18.90;;
19891;SDS011;10108;50.142;8.724;2023-04-25T04:06:25;23.77;;;18.33;;
19891;SDS011;10108;50.142;8.724;2023-04-25T04:08:58;26.73;;;18.92;;
19891;SDS011;10108;50.142;8.724;2023-04-25T04:11:24;23.25;;;18.17;;
19891;SDS011;10108;50.142;8.724;2023-04-25T04:13:51;23.38;;;18.58;;
19891;SDS011;10108;50.142;8.724;2023-04-25T04:16:17;21.42;;;17.90;;
19891;SDS011;10108;50.142;8.724;2023-04-25T04:18:45;21.90;;;17.63;;
19891;SDS011;10108;50.142;8.724;2023-04-25T04:21:11;21.60;;;17.67;;
19891;SDS011;10108;50.142;8.724;2023-04-25T04:23:40;25.83;;;17.85;;
19891;SDS011;10108;50.142;8.724;2023-04-25T04:26:07;23.85;;;16.92;;
19891;SDS011;10108;50.142;8.724;2023-04-25T04:28:51;26.00;;;15.90;;
19891;SDS011;10108;50.142;8.724;2023-04-25T04:31:29;25.20;;;16.10;;
19891;SDS011;10108;50.142;8.724;2023-04-25T04:33:55;21.15;;;15.02;;
19891;SDS011;10108;50.142;8.724;2023-04-25T04:36:22;22.30;;;14.98;;
19891;SDS011;10108;50.142;8.724;2023-04-25T04:38:48;22.17;;;14.98;;
19891;SDS011;10108;50.142;8.724;2023-04-25T04:41:28;19.80;;;14.32;;
19891;SDS011;10108;50.142;8.724;2023-04-25T04:44:07;21.98;;;14.40;;
19891;SDS011;10108;50.142;8.724;2023-04-25T04:46:41;22.50;;;14.25;;
19891;SDS011;10108;50.142;8.724;2023-04-25T04:49:17;18.25;;;13.65;;
19891;SDS011;10108;50.142;8.724;2023-04-25T04:52:04;22.27;;;13.90;;
19891;SDS011;10108;50.142;8.724;2023-04-25T04:54:52;21.05;;;13.48;;
19891;SDS011;10108;50.142;8.724;2023-04-25T04:57:31;20.10;;;13.50;;
19891;SDS011;10108;50.142;8.724;2023-04-25T05:00:21;20.70;;;13.77;;
19891;SDS011;10108;50.142;8.724;2023-04-25T05:03:06;26.42;;;13.93;;
19891;SDS011;10108;50.142;8.724;2023-04-25T05:05:58;22.13;;;13.27;;
19891;SDS011;10108;50.142;8.724;2023-04-25T05:08:44;22.48;;;13.55;;
19891;SDS011;10108;50.142;8.724;2023-04-25T05:11:28;23.80;;;13.70;;
19891;SDS011;10108;50.142;8.724;2023-04-25T05:14:23;21.98;;;13.57;;
19891;SDS011;10108;50.142;8.724;2023-04-25T05:17:25;22.33;;;13.32;;
19891;SDS011;10108;50.142;8.724;2023-04-25T05:20:05;19.23;;;13.25;;
19891;SDS011;10108;50.142;8.724;2023-04-25T05:22:50;18.63;;;13.77;;
19891;SDS011;10108;50.142;8.724;2023-04-25T05:25:39;18.77;;;12.50;;
19891;SDS011;10108;50.142;8.724;2023-04-25T05:28:12;19.40;;;12.75;;
19891;SDS011;10108;50.142;8.724;2023-04-25T05:30:53;19.25;;;11.50;;
19891;SDS011;10108;50.142;8.724;2023-04-25T05:33:26;18.60;;;11.40;;
19891;SDS011;10108;50.142;8.724;2023-04-25T05:35:52;20.48;;;11.40;;
19891;SDS011;10108;50.142;8.724;2023-04-25T05:38:18;21.65;;;11.18;;
19891;SDS011;10108;50.142;8.724;2023-04-25T05:41:23;17.40;;;11.18;;
19891;SDS011;10108;50.142;8.724;2023-04-25T05:43:57;17.85;;;10.90;;
19891;SDS011;10108;50.142;8.724;2023-04-25T05:46:27;21.55;;;10.88;;
19891;SDS011;10108;50.142;8.724;2023-04-25T05:49:09;20.85;;;11.10;;
19891;SDS011;10108;50.142;8.724;2023-04-25T05:51:55;18.83;;;10.25;;
19891;SDS011;10108;50.142;8.724;2023-04-25T05:54:41;16.40;;;10.02;;
19891;SDS011;10108;50.142;8.724;2023-04-25T05:57:08;20.20;;;10.73;;
19891;SDS011;10108;50.142;8.724;2023-04-25T05:59:34;18.92;;;9.77;;
19891;SDS011;10108;50.142;8.724;2023-04-25T06:02:00;16.02;;;9.32;;
19891;SDS011;10108;50.142;8.724;2023-04-25T06:04:27;15.52;;;8.85;;
19891;SDS011;10108;50.142;8.724;2023-04-25T06:06:53;19.05;;;8.55;;
19891;SDS011;10108;50.142;8.724;2023-04-25T06:09:21;18.52;;;9.43;;
19891;SDS011;10108;50.142;8.724;2023-04-25T06:11:47;17.40;;;8.90;;
19891;SDS011;10108;50.142;8.724;2023-04-25T06:14:13;17.77;;;9.35;;
19891;SDS011;10108;50.142;8.724;2023-04-25T06:16:45;16.45;;;8.63;;
19891;SDS011;10108;50.142;8.724;2023-04-25T06:19:11;17.10;;;9.02;;
19891;SDS011;10108;50.142;8.724;2023-04-25T06:21:37;17.10;;;8.75;;
19891;SDS011;10108;50.142;8.724;2023-04-25T06:24:03;20.02;;;8.63;;
19891;SDS011;10108;50.142;8.724;2023-04-25T06:26:30;13.68;;;8.57;;
19891;SDS011;10108;50.142;8.724;2023-04-25T06:28:56;13.90;;;8.35;;
19891;SDS011;10108;50.142;8.724;2023-04-25T06:31:22;14.23;;;8.25;;
19891;SDS011;10108;50.142;8.724;2023-04-25T06:33:50;13.30;;;8.10;;
19891;SDS011;10108;50.142;8.724;2023-04-25T06:36:16;11.60;;;7.60;;
19891;SDS011;10108;50.142;8.724;2023-04-25T06:38:44;13.65;;;7.57;;
19891;SDS011;10108;50.142;8.724;2023-04-25T06:41:10;18.48;;;8.20;;
19891;SDS011;10108;50.142;8.724;2023-04-25T06:43:37;14.80;;;7.95;;
19891;SDS011;10108;50.142;8.724;2023-04-25T06:46:15;13.60;;;8.40;;
19891;SDS011;10108;50.142;8.724;2023-04-25T06:48:44;14.32;;;7.85;;
19891;SDS011;10108;50.142;8.724;2023-04-25T06:51:10;15.15;;;8.05;;
19891;SDS011;10108;50.142;8.724;2023-04-25T06:53:39;16.30;;;8.13;;
19891;SDS011;10108;50.142;8.724;2023-04-25T06:56:09;16.17;;;8.38;;
19891;SDS011;10108;50.142;8.724;2023-04-25T06:58:46;14.15;;;7.57;;
19891;SDS011;10108;50.142;8.724;2023-04-25T07:01:20;13.60;;;8.18;;
19891;SDS011;10108;50.142;8.724;2023-04-25T07:03:46;14.05;;;7.88;;
19891;SDS011;10108;50.142;8.724;2023-04-25T07:06:16;14.27;;;7.75;;
19891;SDS011;10108;50.142;8.724;2023-04-25T07:08:42;15.65;;;7.78;;
19891;SDS011;10108;50.142;8.724;2023-04-25T07:11:08;14.13;;;7.95;;
19891;SDS011;10108;50.142;8.724;2023-04-25T07:13:36;12.50;;;7.45;;
19891;SDS011;10108;50.142;8.724;2023-04-25T07:16:02;13.75;;;7.53;;
19891;SDS011;10108;50.142;8.724;2023-04-25T07:18:30;11.45;;;7.55;;
19891;SDS011;10108;50.142;8.724;2023-04-25T07:20:56;16.00;;;7.57;;
19891;SDS011;10108;50.142;8.724;2023-04-25T07:23:23;11.07;;;7.18;;
19891;SDS011;10108;50.142;8.724;2023-04-25T07:25:49;13.85;;;7.65;;
19891;SDS011;10108;50.142;8.724;2023-04-25T07:28:20;13.98;;;8.00;;
19891;SDS011;10108;50.142;8.724;2023-04-25T07:30:47;14.48;;;8.02;;
19891;SDS011;10108;50.142;8.724;2023-04-25T07:33:13;15.23;;;7.60;;
19891;SDS011;10108;50.142;8.724;2023-04-25T07:35:39;14.65;;;7.40;;
19891;SDS011;10108;50.142;8.724;2023-04-25T07:38:05;13.65;;;8.30;;
19891;SDS011;10108;50.142;8.724;2023-04-25T07:40:32;17.38;;;7.80;;
19891;SDS011;10108;50.142;8.724;2023-04-25T07:43:04;14.00;;;7.80;;
19891;SDS011;10108;50.142;8.724;2023-04-25T07:45:37;12.80;;;7.97;;
19891;SDS011;10108;50.142;8.724;2023-04-25T07:48:03;12.23;;;7.82;;
19891;SDS011;10108;50.142;8.724;2023-04-25T07:50:32;16.42;;;7.78;;
19891;SDS011;10108;50.142;8.724;2023-04-25T07:52:58;13.27;;;7.80;;
19891;SDS011;10108;50.142;8.724;2023-04-25T07:55:32;16.63;;;7.72;;
19891;SDS011;10108;50.142;8.724;2023-04-25T07:58:04;11.52;;;7.05;;
19891;SDS011;10108;50.142;8.724;2023-04-25T08:00:36;11.50;;;7.28;;
19891;SDS011;10108;50.142;8.724;2023-04-25T08:03:25;13.10;;;7.18;;
19891;SDS011;10108;50.142;8.724;2023-04-25T08:05:52;11.63;;;7.30;;
19891;SDS011;10108;50.142;8.724;2023-04-25T08:08:19;12.98;;;6.40;;
19891;SDS011;10108;50.142;8.724;2023-04-25T08:10:45;10.55;;;6.50;;
19891;SDS011;10108;50.142;8.724;2023-04-25T08:13:14;11.63;;;6.60;;
19891;SDS011;10108;50.142;8.724;2023-04-25T08:15:40;13.10;;;7.13;;
19891;SDS011;10108;50.142;8.724;2023-04-25T08:18:07;13.80;;;7.43;;
19891;SDS011;10108;50.142;8.724;2023-04-25T08:20:33;11.00;;;6.90;;
19891;SDS011;10108;50.142;8.724;2023-04-25T08:23:01;12.00;;;6.82;;
19891;SDS011;10108;50.142;8.724;2023-04-25T08:25:39;11.98;;;6.93;;
19891;SDS011;10108;50.142;8.724;2023-04-25T08:28:06;11.65;;;7.00;;
19891;SDS011;10108;50.142;8.724;2023-04-25T08:30:32;13.73;;;6.85;;
19891;SDS011;10108;50.142;8.724;2023-04-25T08:32:59;10.38;;;6.82;;
19891;SDS011;10108;50.142;8.724;2023-04-25T08:35:46;12.88;;;7.43;;
19891;SDS011;10108;50.142;8.724;2023-04-25T08:38:13;13.90;;;7.53;;
19891;SDS011;10108;50.142;8.724;2023-04-25T08:40:40;15.70;;;7.40;;
19891;SDS011;10108;50.142;8.724;2023-04-25T08:43:13;11.45;;;7.50;;
19891;SDS011;10108;50.142;8.724;2023-04-25T08:45:41;10.35;;;6.68;;
19891;SDS011;10108;50.142;8.724;2023-04-25T08:48:11;13.15;;;7.90;;
19891;SDS011;10108;50.142;8.724;2023-04-25T08:50:46;14.38;;;7.60;;
19891;SDS011;10108;50.142;8.724;2023-04-25T08:53:17;13.73;;;7.53;;
19891;SDS011;10108;50.142;8.724;2023-04-25T08:55:47;14.07;;;7.85;;
19891;SDS011;10108;50.142;8.724;2023-04-25T08:58:15;14.15;;;7.70;;
19891;SDS011;10108;50.142;8.724;2023-04-25T09:00:43;11.70;;;7.32;;
19891;SDS011;10108;50.142;8.724;2023-04-25T09:03:12;13.10;;;7.57;;
19891;SDS011;10108;50.142;8.724;2023-04-25T09:05:40;11.02;;;7.45;;
19891;SDS011;10108;50.142;8.724;2023-04-25T09:08:07;10.75;;;7.35;;
19891;SDS011;10108;50.142;8.724;2023-04-25T09:10:34;12.63;;;7.63;;
19891;SDS011;10108;50.142;8.724;2023-04-25T09:13:08;11.98;;;7.82;;
19891;SDS011;10108;50.142;8.724;2023-04-25T09:15:57;13.35;;;7.65;;
19891;SDS011;10108;50.142;8.724;2023-04-25T09:18:41;16.00;;;8.35;;
19891;SDS011;10108;50.142;8.724;2023-04-25T09:21:08;13.60;;;7.55;;
19891;SDS011;10108;50.142;8.724;2023-04-25T09:23:46;13.77;;;7.57;;
19891;SDS011;10108;50.142;8.724;2023-04-25T09:26:14;13.23;;;7.50;;
19891;SDS011;10108;50.142;8.724;2023-04-25T09:28:45;12.38;;;7.43;;
19891;SDS011;10108;50.142;8.724;2023-04-25T09:31:21;12.20;;;7.57;;
19891;SDS011;10108;50.142;8.724;2023-04-25T09:33:50;14.75;;;8.25;;
19891;SDS011;10108;50.142;8.724;2023-04-25T09:36:29;12.32;;;7.78;;
19891;SDS011;10108;50.142;8.724;2023-04-25T09:39:01;18.05;;;8.05;;
19891;SDS011;10108;50.142;8.724;2023-04-25T09:41:31;11.90;;;8.18;;
19891;SDS011;10108;50.142;8.724;2023-04-25T09:44:03;12.35;;;8.02;;
19891;SDS011;10108;50.142;8.724;2023-04-25T09:46:33;11.32;;;7.75;;
19891;SDS011;10108;50.142;8.724;2023-04-25T09:49:06;14.00;;;7.88;;
19891;SDS011;10108;50.142;8.724;2023-04-25T09:51:47;14.43;;;7.60;;
19891;SDS011;10108;50.142;8.724;2023-04-25T09:54:23;12.40;;;7.15;;
19891;SDS011;10108;50.142;8.724;2023-04-25T09:56:56;11.95;;;7.30;;
19891;SDS011;10108;50.142;8.724;2023-04-25T09:59:28;11.38;;;7.63;;
19891;SDS011;10108;50.142;8.724;2023-04-25T10:01:57;11.77;;;7.30;;
19891;SDS011;10108;50.142;8.724;2023-04-25T10:04:34;15.45;;;7.13;;
19891;SDS011;10108;50.142;8.724;2023-04-25T10:07:11;11.50;;;7.28;;
19891;SDS011;10108;50.142;8.724;2023-04-25T10:09:38;9.98;;;6.63;;
19891;SDS011;10108;50.142;8.724;2023-04-25T10:12:06;11.20;;;7.00;;
19891;SDS011;10108;50.142;8.724;2023-04-25T10:14:34;10.07;;;7.18;;
19891;SDS011;10108;50.142;8.724;2023-04-25T10:17:00;10.82;;;7.10;;
19891;SDS011;10108;50.142;8.724;2023-04-25T10:19:27;11.63;;;7.15;;
19891;SDS011;10108;50.142;8.724;2023-04-25T10:22:03;13.52;;;7.45;;
19891;SDS011;10108;50.142;8.724;2023-04-25T10:24:33;10.30;;;6.80;;
19891;SDS011;10108;50.142;8.724;2023-04-25T10:27:01;11.55;;;7.55;;
19891;SDS011;10108;50.142;8.724;2023-04-25T10:29:28;15.15;;;7.38;;
19891;SDS011;10108;50.142;8.724;2023-04-25T10:31:57;10.40;;;7.65;;
19891;SDS011;10108;50.142;8.724;2023-04-25T10:34:24;13.27;;;7.85;;
19891;SDS011;10108;50.142;8.724;2023-04-25T10:37:02;13.30;;;7.95;;
19891;SDS011;10108;50.142;8.724;2023-04-25T10:39:29;12.27;;;7.93;;
19891;SDS011;10108;50.142;8.724;2023-04-25T10:41:57;12.23;;;7.45;;
19891;SDS011;10108;50.142;8.724;2023-04-25T10:44:27;15.75;;;7.72;;
19891;SDS011;10108;50.142;8.724;2023-04-25T10:46:55;11.45;;;7.22;;
19891;SDS011;10108;50.142;8.724;2023-04-25T10:49:33;10.85;;;6.68;;
19891;SDS011;10108;50.142;8.724;2023-04-25T10:54:49;13.05;;;7.13;;
19891;SDS011;10108;50.142;8.724;2023-04-25T10:57:29;10.55;;;7.00;;
19891;SDS011;10108;50.142;8.724;2023-04-25T11:00:13;10.40;;;6.68;;
19891;SDS011;10108;50.142;8.724;2023-04-25T11:02:42;11.73;;;6.68;;
19891;SDS011;10108;50.142;8.724;2023-04-25T11:05:11;11.20;;;7.35;;
19891;SDS011;10108;50.142;8.724;2023-04-25T11:07:50;11.02;;;6.88;;
19891;SDS011;10108;50.142;8.724;2023-04-25T11:10:18;11.15;;;7.03;;
19891;SDS011;10108;50.142;8.724;2023-04-25T11:12:46;15.60;;;7.75;;
19891;SDS011;10108;50.142;8.724;2023-04-25T11:15:13;11.05;;;7.32;;
19891;SDS011;10108;50.142;8.724;2023-04-25T11:17:39;10.00;;;6.97;;
19891;SDS011;10108;50.142;8.724;2023-04-25T11:20:07;9.70;;;6.70;;
19891;SDS011;10108;50.142;8.724;2023-04-25T11:22:45;11.35;;;6.85;;
19891;SDS011;10108;50.142;8.724;2023-04-25T11:25:13;13.77;;;7.13;;
19891;SDS011;10108;50.142;8.724;2023-04-25T11:27:53;13.30;;;6.78;;
19891;SDS011;10108;50.142;8.724;2023-04-25T11:30:21;10.65;;;6.72;;
19891;SDS011;10108;50.142;8.724;2023-04-25T11:32:48;11.80;;;6.60;;
19891;SDS011;10108;50.142;8.724;2023-04-25T11:35:14;11.55;;;6.50;;
19891;SDS011;10108;50.142;8.724;2023-04-25T11:37:41;13.23;;;6.60;;
19891;SDS011;10108;50.142;8.724;2023-04-25T11:40:09;10.00;;;6.35;;
19891;SDS011;10108;50.142;8.724;2023-04-25T11:42:39;10.85;;;6.30;;
19891;SDS011;10108;50.142;8.724;2023-04-25T11:45:08;11.30;;;6.65;;
19891;SDS011;10108;50.142;8.724;2023-04-25T11:47:36;12.88;;;6.50;;
19891;SDS011;10108;50.142;8.724;2023-04-25T11:50:03;11.38;;;6.20;;
19891;SDS011;10108;50.142;8.724;2023-04-25T11:52:46;11.98;;;6.45;;
19891;SDS011;10108;50.142;8.724;2023-04-25T11:55:14;11.90;;;6.57;;
19891;SDS011;10108;50.142;8.724;2023-04-25T11:57:42;10.85;;;6.65;;
19891;SDS011;10108;50.142;8.724;2023-04-25T12:00:10;12.32;;;6.28;;
19891;SDS011;10108;50.142;8.724;2023-04-25T12:02:40;12.50;;;6.10;;
19891;SDS011;10108;50.142;8.724;2023-04-25T12:05:08;11.82;;;6.28;;
19891;SDS011;10108;50.142;8.724;2023-04-25T12:07:35;9.52;;;5.80;;
19891;SDS011;10108;50.142;8.724;2023-04-25T12:10:09;11.35;;;5.93;;
19891;SDS011;10108;50.142;8.724;2023-04-25T12:12:37;9.40;;;6.03;;
19891;SDS011;10108;50.142;8.724;2023-04-25T12:15:10;8.73;;;6.18;;
19891;SDS011;10108;50.142;8.724;2023-04-25T12:17:40;11.82;;;6.15;;
19891;SDS011;10108;50.142;8.724;2023-04-25T12:20:12;15.98;;;6.40;;
19891;SDS011;10108;50.142;8.724;2023-04-25T12:22:40;13.10;;;6.60;;
19891;SDS011;10108;50.142;8.724;2023-04-25T12:25:13;13.00;;;6.88;;
19891;SDS011;10108;50.142;8.724;2023-04-25T12:30:53;11.15;;;6.50;;
19891;SDS011;10108;50.142;8.724;2023-04-25T12:33:27;15.85;;;6.78;;
19891;SDS011;10108;50.142;8.724;2023-04-25T12:36:03;11.77;;;6.60;;
19891;SDS011;10108;50.142;8.724;2023-04-25T12:38:37;14.48;;;7.07;;
19891;SDS011;10108;50.142;8.724;2023-04-25T12:41:05;14.13;;;7.05;;
19891;SDS011;10108;50.142;8.724;2023-04-25T12:43:31;15.30;;;6.90;;
19891;SDS011;10108;50.142;8.724;2023-04-25T12:45:58;15.68;;;7.25;;
19891;SDS011;10108;50.142;8.724;2023-04-25T12:48:24;12.45;;;6.97;;
19891;SDS011;10108;50.142;8.724;2023-04-25T12:50:50;12.88;;;6.40;;
19891;SDS011;10108;50.142;8.724;2023-04-25T12:53:17;14.32;;;6.90;;
19891;SDS011;10108;50.142;8.724;2023-04-25T12:55:48;14.23;;;7.35;;
19891;SDS011;10108;50.142;8.724;2023-04-25T12:58:14;12.38;;;6.57;;
19891;SDS011;10108;50.142;8.724;2023-04-25T13:00:41;12.95;;;6.80;;
19891;SDS011;10108;50.142;8.724;2023-04-25T13:03:08;12.80;;;6.82;;
19891;SDS011;10108;50.142;8.724;2023-04-25T13:05:36;12.60;;;6.93;;
19891;SDS011;10108;50.142;8.724;2023-04-25T13:08:03;13.88;;;6.90;;
19891;SDS011;10108;50.142;8.724;2023-04-25T13:10:30;13.32;;;6.72;;
19891;SDS011;10108;50.142;8.724;2023-04-25T13:12:56;11.50;;;6.93;;
19891;SDS011;10108;50.142;8.724;2023-04-25T13:15:22;11.20;;;6.93;;
19891;SDS011;10108;50.142;8.724;2023-04-25T13:17:48;12.07;;;6.45;;
19891;SDS011;10108;50.142;8.724;2023-04-25T13:20:14;12.02;;;6.32;;
19891;SDS011;10108;50.142;8.724;2023-04-25T13:22:42;12.40;;;6.70;;
19891;SDS011;10108;50.142;8.724;2023-04-25T13:25:08;11.48;;;6.40;;
19891;SDS011;10108;50.142;8.724;2023-04-25T13:27:35;14.60;;;6.53;;
19891;SDS011;10108;50.142;8.724;2023-04-25T13:30:02;13.93;;;6.55;;
19891;SDS011;10108;50.142;8.724;2023-04-25T13:32:33;12.77;;;6.60;;
19891;SDS011;10108;50.142;8.724;2023-04-25T13:35:02;11.10;;;6.80;;
19891;SDS011;10108;50.142;8.724;2023-04-25T13:37:29;12.40;;;6.30;;
19891;SDS011;10108;50.142;8.724;2023-04-25T13:39:56;12.73;;;6.47;;
19891;SDS011;10108;50.142;8.724;2023-04-25T13:42:23;13.43;;;6.50;;
19891;SDS011;10108;50.142;8.724;2023-04-25T13:44:49;12.75;;;6.70;;
19891;SDS011;10108;50.142;8.724;2023-04-25T13:47:15;10.57;;;6.65;;
19891;SDS011;10108;50.142;8.724;2023-04-25T13:49:41;13.20;;;6.40;;
19891;SDS011;10108;50.142;8.724;2023-04-25T13:52:08;13.35;;;6.50;;
19891;SDS011;10108;50.142;8.724;2023-04-25T13:54:34;9.77;;;6.22;;
19891;SDS011;10108;50.142;8.724;2023-04-25T13:57:00;10.68;;;6.68;;
19891;SDS011;10108;50.142;8.724;2023-04-25T13:59:26;11.23;;;6.80;;
19891;SDS011;10108;50.142;8.724;2023-04-25T14:01:55;12.35;;;6.82;;
19891;SDS011;10108;50.142;8.724;2023-04-25T14:04:47;12.23;;;6.57;;
19891;SDS011;10108;50.142;8.724;2023-04-25T14:07:13;9.98;;;6.40;;
19891;SDS011;10108;50.142;8.724;2023-04-25T14:10:09;15.10;;;6.40;;
19891;SDS011;10108;50.142;8.724;2023-04-25T14:13:01;11.13;;;6.65;;
19891;SDS011;10108;50.142;8.724;2023-04-25T14:15:29;13.18;;;6.45;;
19891;SDS011;10108;50.142;8.724;2023-04-25T14:17:59;13.07;;;6.43;;
19891;SDS011;10108;50.142;8.724;2023-04-25T14:20:25;10.73;;;6.28;;
19891;SDS011;10108;50.142;8.724;2023-04-25T14:23:17;15.40;;;6.80;;
19891;SDS011;10108;50.142;8.724;2023-04-25T14:25:43;10.02;;;6.40;;
19891;SDS011;10108;50.142;8.724;2023-04-25T14:28:35;13.00;;;6.22;;
19891;SDS011;10108;50.142;8.724;2023-04-25T14:31:01;13.02;;;6.30;;
19891;SDS011;10108;50.142;8.724;2023-04-25T14:33:27;9.75;;;6.13;;
19891;SDS011;10108;50.142;8.724;2023-04-25T14:35:53;11.18;;;6.10;;
19891;SDS011;10108;50.142;8.724;2023-04-25T14:38:20;9.60;;;6.07;;
19891;SDS011;10108;50.142;8.724;2023-04-25T14:40:51;11.45;;;6.38;;
19891;SDS011;10108;50.142;8.724;2023-04-25T14:43:17;10.73;;;6.50;;
19891;SDS011;10108;50.142;8.724;2023-04-25T14:45:43;11.20;;;6.30;;
19891;SDS011;10108;50.142;8.724;2023-04-25T14:48:10;11.48;;;6.30;;
19891;SDS011;10108;50.142;8.724;2023-04-25T14:50:36;9.77;;;6.60;;